createdAt,value
2022-11-05T00:02:31.808Z,100145.97
2022-11-05T00:05:18.764Z,100146.78
2022-11-05T00:08:07.221Z,100153.78
2022-11-05T00:10:38.100Z,100154.78
2022-11-05T00:13:25.966Z,100163.84
2022-11-05T00:16:12.119Z,100166.63
2022-11-05T00:18:40.420Z,100160.47
2022-11-05T00:21:31.117Z,100162.41
2022-11-05T00:24:20.390Z,100172.06
2022-11-05T00:26:51.193Z,100169.16
2022-11-05T00:29:19.126Z,100176.44
2022-11-05T00:31:47.023Z,100176.53
2022-11-05T00:34:14.948Z,100180.41
2022-11-05T00:36:44.200Z,100184.75
2022-11-05T00:39:12.216Z,100189.22
2022-11-05T00:41:40.211Z,100189.00
2022-11-05T00:44:25.657Z,100196.84
2022-11-05T00:47:13.735Z,100204.81
2022-11-05T00:49:40.726Z,100204.97
2022-11-05T00:52:23.891Z,100201.56
2022-11-05T00:54:51.842Z,100201.44
2022-11-05T00:57:19.681Z,100200.47
2022-11-05T00:59:47.620Z,100204.97
2022-11-05T01:02:15.678Z,100204.97
2022-11-05T01:04:43.675Z,100205.78
2022-11-05T01:07:13.098Z,100208.34
2022-11-05T01:09:41.035Z,100211.72
2022-11-05T01:12:08.976Z,100216.91
2022-11-05T01:14:36.974Z,100215.34
2022-11-05T01:17:05.349Z,100219.69
2022-11-05T01:19:33.559Z,100216.06
2022-11-05T01:22:01.504Z,100214.38
2022-11-05T01:24:30.749Z,100212.66
2022-11-05T01:26:58.589Z,100215.34
2022-11-05T01:29:26.373Z,100210.28
2022-11-05T01:31:54.245Z,100221.03
2022-11-05T01:34:22.242Z,100219.56
2022-11-05T01:36:50.229Z,100222.97
2022-11-05T01:39:18.209Z,100223.19
2022-11-05T01:41:47.576Z,100232.38
2022-11-05T01:45:06.994Z,100237.34
2022-11-05T01:47:48.881Z,100239.63
2022-11-05T01:50:31.463Z,100239.13
2022-11-05T01:53:05.140Z,100246.38
2022-11-05T01:55:37.819Z,100245.19
2022-11-05T01:58:10.412Z,100251.44
2022-11-05T02:00:39.015Z,100247.72
2022-11-05T02:03:07.254Z,100247.22
2022-11-05T02:05:36.069Z,100256.16
2022-11-05T02:08:04.505Z,100253.72
2022-11-05T02:10:34.251Z,100254.81
2022-11-05T02:13:03.731Z,100251.06
2022-11-05T02:15:44.672Z,100257.38
2022-11-05T02:18:21.494Z,100263.53
2022-11-05T02:21:00.585Z,100268.00
2022-11-05T02:23:55.904Z,100269.94
2022-11-05T02:26:51.055Z,100269.94
2022-11-05T02:29:51.559Z,100282.13
2022-11-05T02:32:34.471Z,100285.63
2022-11-05T02:35:14.561Z,100283.94
2022-11-05T02:37:45.760Z,100282.25
2022-11-05T02:40:19.242Z,100284.06
2022-11-05T02:42:57.208Z,100292.03
2022-11-05T02:45:39.185Z,100292.88
2022-11-05T02:48:16.074Z,100296.25
2022-11-05T02:50:54.129Z,100294.44
2022-11-05T02:53:36.518Z,100293.72
2022-11-05T02:56:09.240Z,100296.25
2022-11-05T02:58:37.162Z,100297.25
2022-11-05T03:01:08.874Z,100305.06
2022-11-05T03:03:42.942Z,100304.84
2022-11-05T03:06:36.869Z,100307.50
2022-11-05T03:09:49.230Z,100303.66
2022-11-05T03:12:26.875Z,100311.72
2022-11-05T03:15:02.253Z,100308.03
2022-11-05T03:17:39.043Z,100308.50
2022-11-05T03:20:20.472Z,100315.13
2022-11-05T03:22:53.632Z,100310.44
2022-11-05T03:25:23.932Z,100312.97
2022-11-05T03:27:57.544Z,100316.72
2022-11-05T03:30:26.449Z,100318.50
2022-11-05T03:32:59.378Z,100328.31
2022-11-05T03:35:30.536Z,100333.00
2022-11-05T03:38:03.937Z,100329.41
2022-11-05T03:40:34.675Z,100344.47
2022-11-05T03:43:05.007Z,100347.28
2022-11-05T03:45:36.919Z,100348.31
2022-11-05T03:48:07.199Z,100352.19
2022-11-05T03:50:41.811Z,100360.41
2022-11-05T03:53:16.249Z,100361.34
2022-11-05T03:55:52.308Z,100381.88
2022-11-05T03:58:22.565Z,100376.56
2022-11-05T04:00:52.035Z,100380.69
2022-11-05T04:03:20.726Z,100379.22
2022-11-05T04:06:12.282Z,100380.53
2022-11-05T04:08:59.367Z,100389.47
2022-11-05T04:11:44.787Z,100382.69
2022-11-05T04:14:12.750Z,100385.56
2022-11-05T04:16:58.030Z,100384.97
2022-11-05T04:19:39.821Z,100386.66
2022-11-05T04:22:26.627Z,100387.72
2022-11-05T04:24:54.606Z,100391.56
2022-11-05T04:27:22.516Z,100393.59
2022-11-05T04:30:07.921Z,100400.03
2022-11-05T04:32:35.847Z,100395.91
2022-11-05T04:35:03.846Z,100393.59
2022-11-05T04:37:33.427Z,100411.91
2022-11-05T04:40:01.368Z,100413.72
2022-11-05T04:42:29.726Z,100407.53
2022-11-05T04:44:57.728Z,100406.69
2022-11-05T04:47:25.747Z,100411.38
2022-11-05T04:49:53.696Z,100403.50
2022-11-05T04:52:21.703Z,100415.22
2022-11-05T04:54:51.049Z,100424.38
2022-11-05T04:57:18.963Z,100417.47
2022-11-05T04:59:49.558Z,100414.72
2022-11-05T05:02:17.630Z,100423.88
2022-11-05T05:04:46.355Z,100419.75
2022-11-05T05:07:14.161Z,100424.50
2022-11-05T05:09:42.003Z,100420.88
2022-11-05T05:12:11.143Z,100427.16
2022-11-05T05:14:38.917Z,100433.56
2022-11-05T05:17:06.773Z,100438.13
2022-11-05T05:19:54.535Z,100438.22
2022-11-05T05:22:21.396Z,100441.81
2022-11-05T05:24:52.748Z,100438.44
2022-11-05T05:27:22.843Z,100442.78
2022-11-05T05:29:50.868Z,100440.97
2022-11-05T05:32:18.661Z,100448.84
2022-11-05T05:34:46.497Z,100450.75
2022-11-05T05:37:14.301Z,100450.31
2022-11-05T05:39:42.135Z,100452.75
2022-11-05T05:42:09.954Z,100446.81
2022-11-05T05:44:39.613Z,100448.09
2022-11-05T05:47:07.529Z,100452.88
2022-11-05T05:49:35.329Z,100455.53
2022-11-05T05:52:03.055Z,100456.59
2022-11-05T05:54:32.857Z,100460.09
2022-11-05T05:57:02.142Z,100463.63
2022-11-05T05:59:29.932Z,100468.94
2022-11-05T06:01:59.279Z,100471.69
2022-11-05T06:04:27.193Z,100477.50
2022-11-05T06:06:54.967Z,100478.47
2022-11-05T06:09:22.693Z,100488.13
2022-11-05T06:11:50.612Z,100485.47
2022-11-05T06:14:18.356Z,100494.19
2022-11-05T06:16:46.157Z,100499.28
2022-11-05T06:19:15.404Z,100499.28
2022-11-05T06:21:43.255Z,100500.13
2022-11-05T06:24:11.579Z,100509.47
2022-11-05T06:26:42.859Z,100516.47
2022-11-05T06:29:11.005Z,100521.69
2022-11-05T06:31:38.846Z,100532.41
2022-11-05T06:34:06.614Z,100536.03
2022-11-05T06:36:35.799Z,100537.72
2022-11-05T06:39:03.592Z,100540.34
2022-11-05T06:41:31.355Z,100552.78
2022-11-05T06:43:59.514Z,100544.63
2022-11-05T06:46:27.309Z,100549.19
2022-11-05T06:48:55.260Z,100546.31
2022-11-05T06:51:23.914Z,100552.16
2022-11-05T06:53:53.076Z,100555.16
2022-11-05T06:56:20.823Z,100560.34
2022-11-05T06:58:48.566Z,100561.22
2022-11-05T07:01:16.767Z,100567.34
2022-11-05T07:03:45.142Z,100567.47
2022-11-05T07:06:13.017Z,100572.56
2022-11-05T07:08:40.939Z,100572.66
2022-11-05T07:11:10.204Z,100574.34
2022-11-05T07:13:38.176Z,100573.31
2022-11-05T07:16:06.693Z,100577.56
2022-11-05T07:18:34.615Z,100582.03
2022-11-05T07:21:02.534Z,100582.75
2022-11-05T07:23:30.564Z,100588.81
2022-11-05T07:25:58.608Z,100591.25
2022-11-05T07:28:27.936Z,100594.75
2022-11-05T07:30:55.846Z,100605.91
2022-11-05T07:33:23.721Z,100604.09
2022-11-05T07:35:51.676Z,100605.81
2022-11-05T07:38:20.241Z,100618.03
2022-11-05T07:40:48.080Z,100609.72
2022-11-05T07:43:15.935Z,100615.91
2022-11-05T07:45:47.013Z,100623.75
2022-11-05T07:48:14.897Z,100631.63
2022-11-05T07:50:42.840Z,100616.13
2022-11-05T07:53:13.054Z,100627.91
2022-11-05T07:55:42.300Z,100637.66
2022-11-05T07:58:10.764Z,100634.81
2022-11-05T08:00:38.620Z,100642.88
2022-11-05T08:03:09.788Z,100642.03
2022-11-05T08:05:39.891Z,100652.03
2022-11-05T08:08:09.188Z,100653.84
2022-11-05T08:10:37.822Z,100662.66
2022-11-05T08:13:06.634Z,100662.56
2022-11-05T08:15:35.584Z,100662.31
2022-11-05T08:18:04.553Z,100663.38
2022-11-05T08:20:34.551Z,100666.91
2022-11-05T08:23:02.373Z,100673.81
2022-11-05T08:25:30.547Z,100671.78
2022-11-05T08:27:59.514Z,100678.69
2022-11-05T08:30:28.211Z,100670.94
2022-11-05T08:32:58.833Z,100674.22
2022-11-05T08:35:27.232Z,100676.00
2022-11-05T08:37:59.217Z,100683.16
2022-11-05T08:40:27.606Z,100674.34
2022-11-05T08:42:57.917Z,100678.56
2022-11-05T08:45:25.920Z,100678.38
2022-11-05T08:47:59.983Z,100686.00
2022-11-05T08:50:28.232Z,100689.22
2022-11-05T08:52:56.060Z,100690.16
2022-11-05T08:55:25.817Z,100695.13
2022-11-05T08:57:57.379Z,100697.06
2022-11-05T09:00:25.731Z,100696.06
2022-11-05T09:02:53.608Z,100694.28
2022-11-05T09:05:21.406Z,100695.31
2022-11-05T09:07:49.214Z,100693.50
2022-11-05T09:10:17.024Z,100700.31
2022-11-05T09:12:46.367Z,100697.44
2022-11-05T09:15:14.390Z,100703.38
2022-11-05T09:17:42.254Z,100708.81
2022-11-05T09:20:12.830Z,100702.63
2022-11-05T09:22:43.386Z,100697.31
2022-11-05T09:25:11.855Z,100702.63
2022-11-05T09:27:39.636Z,100700.38
2022-11-05T09:30:11.507Z,100706.56
2022-11-05T09:32:39.359Z,100702.63
2022-11-05T09:35:07.840Z,100707.38
2022-11-05T09:37:36.060Z,100710.22
2022-11-05T09:40:04.288Z,100710.97
2022-11-05T09:42:37.890Z,100710.84
2022-11-05T09:45:11.978Z,100712.56
2022-11-05T09:47:43.677Z,100723.16
2022-11-05T09:50:16.455Z,100726.88
2022-11-05T09:52:44.194Z,100725.22
2022-11-05T09:55:29.526Z,100727.78
2022-11-05T09:58:00.565Z,100733.38
2022-11-05T10:00:31.052Z,100732.66
2022-11-05T10:03:02.133Z,100737.00
2022-11-05T10:05:30.047Z,100733.97
2022-11-05T10:08:03.540Z,100734.28
2022-11-05T10:10:41.061Z,100722.59
2022-11-05T10:13:19.234Z,100729.59
2022-11-05T10:15:55.421Z,100731.91
2022-11-05T10:18:29.423Z,100732.97
2022-11-05T10:20:58.438Z,100736.25
2022-11-05T10:23:27.981Z,100734.06
2022-11-05T10:25:58.525Z,100745.53
2022-11-05T10:28:30.469Z,100741.75
2022-11-05T10:31:01.777Z,100746.28
2022-11-05T10:33:33.702Z,100750.56
2022-11-05T10:36:05.460Z,100754.34
2022-11-05T10:38:34.103Z,100760.38
2022-11-05T10:41:15.752Z,100755.53
2022-11-05T10:43:48.565Z,100759.84
2022-11-05T10:46:25.638Z,100763.31
2022-11-05T10:49:18.903Z,100756.28
2022-11-05T10:51:48.289Z,100757.31
2022-11-05T10:54:20.474Z,100756.53
2022-11-05T10:56:48.658Z,100751.97
2022-11-05T10:59:24.823Z,100761.09
2022-11-05T11:02:02.914Z,100761.31
2022-11-05T11:04:37.713Z,100750.97
2022-11-05T11:07:06.704Z,100754.84
2022-11-05T11:09:37.876Z,100747.53
2022-11-05T11:12:08.998Z,100750.19
2022-11-05T11:14:36.932Z,100749.50
2022-11-05T11:17:26.954Z,100746.81
2022-11-05T11:20:21.077Z,100745.72
2022-11-05T11:23:01.072Z,100745.84
2022-11-05T11:25:30.809Z,100747.50
2022-11-05T11:28:04.654Z,100746.50
2022-11-05T11:30:33.793Z,100745.63
2022-11-05T11:33:07.268Z,100753.56
2022-11-05T11:35:37.851Z,100750.44
2022-11-05T11:38:07.750Z,100743.84
2022-11-05T11:40:37.400Z,100742.00
2022-11-05T11:43:25.061Z,100742.38
2022-11-05T11:46:00.685Z,100740.53
2022-11-05T11:48:37.167Z,100740.38
2022-11-05T11:51:18.964Z,100738.09
2022-11-05T11:53:49.196Z,100739.38
2022-11-05T11:56:19.829Z,100747.09
2022-11-05T11:58:49.875Z,100745.06
2022-11-05T12:01:44.185Z,100747.03
2022-11-05T12:04:27.408Z,100741.72
2022-11-05T12:07:06.274Z,100743.72
2022-11-05T12:09:49.581Z,100742.94
2022-11-05T12:12:23.183Z,100742.72
2022-11-05T12:14:57.358Z,100743.13
2022-11-05T12:17:41.280Z,100738.06
2022-11-05T12:20:31.083Z,100741.84
2022-11-05T12:23:22.545Z,100735.03
2022-11-05T12:25:58.887Z,100741.13
2022-11-05T12:28:58.128Z,100735.06
2022-11-05T12:31:37.705Z,100723.41
2022-11-05T12:34:20.681Z,100736.50
2022-11-05T12:36:57.972Z,100729.88
2022-11-05T12:39:44.690Z,100734.63
2022-11-05T12:42:23.354Z,100739.94
2022-11-05T12:45:02.213Z,100732.41
2022-11-05T12:47:50.398Z,100735.78
2022-11-05T12:50:25.995Z,100737.53
2022-11-05T12:53:21.957Z,100744.03
2022-11-05T12:55:51.212Z,100737.53
2022-11-05T12:58:24.215Z,100747.13
2022-11-05T13:00:59.560Z,100747.13
2022-11-05T13:03:35.731Z,100747.13
2022-11-05T13:06:08.725Z,100748.81
2022-11-05T13:08:45.813Z,100741.25
2022-11-05T13:11:20.497Z,100749.88
2022-11-05T13:13:53.262Z,100750.97
2022-11-05T13:16:24.292Z,100747.00
2022-11-05T13:18:56.171Z,100747.13
2022-11-05T13:21:29.515Z,100748.22
2022-11-05T13:24:06.149Z,100743.59
2022-11-05T13:26:41.020Z,100741.06
2022-11-05T13:29:14.558Z,100747.28
2022-11-05T13:31:46.054Z,100739.38
2022-11-05T13:34:14.729Z,100741.41
2022-11-05T13:37:11.739Z,100741.56
2022-11-05T13:39:47.179Z,100736.66
2022-11-05T13:42:56.049Z,100739.94
2022-11-05T13:46:08.589Z,100735.59
2022-11-05T13:49:07.682Z,100741.06
2022-11-05T13:51:50.586Z,100734.25
2022-11-05T13:54:57.459Z,100735.47
2022-11-05T13:57:46.673Z,100735.13
2022-11-05T14:00:19.112Z,100732.84
2022-11-05T14:02:50.713Z,100737.69
2022-11-05T14:05:25.399Z,100745.88
2022-11-05T14:07:54.761Z,100746.13
2022-11-05T14:10:33.224Z,100756.94
2022-11-05T14:13:21.811Z,100754.75
2022-11-05T14:16:01.773Z,100759.25
2022-11-05T14:18:41.552Z,100763.84
2022-11-05T14:21:31.444Z,100754.66
2022-11-05T14:24:00.433Z,100754.88
2022-11-05T14:26:29.895Z,100755.63
2022-11-05T14:29:25.001Z,100759.13
2022-11-05T14:32:09.503Z,100754.50
2022-11-05T14:34:44.219Z,100760.56
2022-11-05T14:37:25.723Z,100755.56
2022-11-05T14:39:54.720Z,100764.44
2022-11-05T14:42:26.896Z,100764.31
2022-11-05T14:45:27.046Z,100765.03
2022-11-05T14:47:57.946Z,100757.97
2022-11-05T14:50:33.066Z,100763.31
2022-11-05T14:53:11.675Z,100767.19
2022-11-05T14:55:42.525Z,100758.34
2022-11-05T14:58:29.813Z,100758.56
2022-11-05T15:01:02.443Z,100753.72
2022-11-05T15:03:46.771Z,100758.31
2022-11-05T15:06:36.862Z,100766.88
2022-11-05T15:09:23.999Z,100752.09
2022-11-05T15:12:09.152Z,100756.69
2022-11-05T15:14:42.771Z,100762.59
2022-11-05T15:17:21.406Z,100777.53
2022-11-05T15:19:49.748Z,100770.22
2022-11-05T15:22:30.415Z,100770.31
2022-11-05T15:24:58.644Z,100770.56
2022-11-05T15:27:44.550Z,100771.03
2022-11-05T15:30:17.591Z,100768.94
2022-11-05T15:32:47.087Z,100770.22
2022-11-05T15:35:21.078Z,100778.31
2022-11-05T15:37:55.899Z,100777.59
2022-11-05T15:40:28.423Z,100776.47
2022-11-05T15:43:19.505Z,100773.28
2022-11-05T15:46:00.111Z,100780.03
2022-11-05T15:48:29.229Z,100779.91
2022-11-05T15:50:57.468Z,100769.19
2022-11-05T15:54:23.745Z,100779.66
2022-11-05T15:56:50.013Z,100774.88
2022-11-05T15:59:20.124Z,100776.16
2022-11-05T16:01:50.234Z,100780.94
2022-11-05T16:04:22.697Z,100779.56
2022-11-05T16:06:53.594Z,100780.88
2022-11-05T16:09:24.336Z,100780.34
2022-11-05T16:12:12.648Z,100787.81
2022-11-05T16:14:40.891Z,100785.34
2022-11-05T16:17:19.808Z,100782.13
2022-11-05T16:19:49.581Z,100788.53
2022-11-05T16:22:18.426Z,100795.13
2022-11-05T16:24:47.430Z,100796.19
2022-11-05T16:27:19.666Z,100796.63
2022-11-05T16:29:55.548Z,100792.56
2022-11-05T16:32:30.583Z,100795.53
2022-11-05T16:35:02.886Z,100792.97
2022-11-05T16:37:39.692Z,100792.44
2022-11-05T16:40:14.844Z,100796.38
2022-11-05T16:42:43.600Z,100801.78
2022-11-05T16:45:13.988Z,100798.38
2022-11-05T16:47:42.158Z,100804.53
2022-11-05T16:50:19.128Z,100797.72
2022-11-05T16:52:47.647Z,100810.38
2022-11-05T16:55:16.762Z,100808.88
2022-11-05T16:57:46.629Z,100811.00
2022-11-05T17:00:17.063Z,100811.19
2022-11-05T17:02:45.630Z,100817.56
2022-11-05T17:05:21.523Z,100814.66
2022-11-05T17:07:49.335Z,100814.00
2022-11-05T17:10:17.267Z,100828.25
2022-11-05T17:12:45.378Z,100826.63
2022-11-05T17:15:23.173Z,100838.41
2022-11-05T17:17:51.655Z,100839.66
2022-11-05T17:20:34.968Z,100846.09
2022-11-05T17:23:07.296Z,100856.19
2022-11-05T17:25:35.402Z,100851.28
2022-11-05T17:28:04.977Z,100843.53
2022-11-05T17:30:33.077Z,100844.59
2022-11-05T17:33:00.938Z,100846.41
2022-11-05T17:35:30.403Z,100862.44
2022-11-05T17:37:58.357Z,100863.28
2022-11-05T17:40:27.365Z,100859.88
2022-11-05T17:42:55.370Z,100861.88
2022-11-05T17:45:23.347Z,100846.97
2022-11-05T17:47:51.159Z,100838.28
2022-11-05T17:50:19.121Z,100843.56
2022-11-05T17:52:48.335Z,100856.00
2022-11-05T17:55:19.115Z,100861.31
2022-11-05T17:57:49.910Z,100864.13
2022-11-05T18:00:19.520Z,100862.25
2022-11-05T18:02:48.529Z,100863.13
2022-11-05T18:05:18.075Z,100868.44
2022-11-05T18:07:46.377Z,100869.28
2022-11-05T18:10:16.267Z,100869.19
2022-11-05T18:12:44.773Z,100868.31
2022-11-05T18:15:13.369Z,100864.81
2022-11-05T18:17:41.454Z,100877.41
2022-11-05T18:20:17.412Z,100868.59
2022-11-05T18:22:46.705Z,100870.31
2022-11-05T18:25:15.914Z,100872.22
2022-11-05T18:27:43.861Z,100879.31
2022-11-05T18:30:15.338Z,100877.72
2022-11-05T18:32:43.335Z,100875.13
2022-11-05T18:35:11.391Z,100874.69
2022-11-05T18:37:39.929Z,100870.44
2022-11-05T18:40:08.980Z,100873.16
2022-11-05T18:42:38.318Z,100872.41
2022-11-05T18:45:07.368Z,100876.13
2022-11-05T18:47:35.225Z,100873.47
2022-11-05T18:50:03.296Z,100881.59
2022-11-05T18:52:32.337Z,100876.28
2022-11-05T18:55:00.611Z,100872.03
2022-11-05T18:57:28.827Z,100875.44
2022-11-05T18:59:58.097Z,100873.84
2022-11-05T19:02:26.006Z,100874.78
2022-11-05T19:05:27.538Z,100869.66
2022-11-05T19:07:41.667Z,100873.44
2022-11-05T19:10:10.041Z,100878.72
2022-11-05T19:12:37.788Z,100877.03
2022-11-05T19:15:08.264Z,100878.94
2022-11-05T19:17:37.001Z,100891.22
2022-11-05T19:20:05.956Z,100884.31
2022-11-05T19:22:34.125Z,100887.94
2022-11-05T19:25:01.919Z,100885.38
2022-11-05T19:27:29.661Z,100887.44
2022-11-05T19:29:57.728Z,100887.56
2022-11-05T19:32:27.666Z,100878.03
2022-11-05T19:34:55.392Z,100882.50
2022-11-05T19:37:23.218Z,100883.72
2022-11-05T19:39:50.980Z,100882.13
2022-11-05T19:42:18.762Z,100878.69
2022-11-05T19:44:46.537Z,100870.19
2022-11-05T19:47:14.387Z,100868.75
2022-11-05T19:49:43.518Z,100869.88
2022-11-05T19:52:11.328Z,100870.91
2022-11-05T19:54:39.126Z,100871.09
2022-11-05T19:57:07.314Z,100869.47
2022-11-05T19:59:35.106Z,100867.94
2022-11-05T20:02:03.060Z,100867.28
2022-11-05T20:04:31.205Z,100869.25
2022-11-05T20:07:00.360Z,100873.94
2022-11-05T20:09:28.227Z,100869.00
2022-11-05T20:11:57.209Z,100858.69
2022-11-05T20:14:26.261Z,100871.25
2022-11-05T20:16:54.736Z,100868.69
2022-11-05T20:19:23.980Z,100866.22
2022-11-05T20:21:51.831Z,100874.19
2022-11-05T20:24:25.269Z,100865.47
2022-11-05T20:26:54.127Z,100867.16
2022-11-05T20:29:22.773Z,100867.16
2022-11-05T20:31:51.183Z,100867.44
2022-11-05T20:34:18.989Z,100881.78
2022-11-05T20:36:46.875Z,100874.78
2022-11-05T20:39:14.732Z,100868.72
2022-11-05T20:41:43.951Z,100871.47
2022-11-05T20:44:12.044Z,100867.09
2022-11-05T20:46:39.895Z,100875.03
2022-11-05T20:49:07.670Z,100873.34
2022-11-05T20:51:35.434Z,100871.47
2022-11-05T20:54:03.840Z,100869.66
2022-11-05T20:56:34.732Z,100876.50
2022-11-05T20:59:05.387Z,100876.41
2022-11-05T21:01:35.484Z,100876.41
2022-11-05T21:04:04.258Z,100870.84
2022-11-05T21:06:32.850Z,100869.03
2022-11-05T21:09:00.866Z,100873.34
2022-11-05T21:11:29.270Z,100869.91
2022-11-05T21:13:57.007Z,100883.94
2022-11-05T21:16:26.191Z,100884.84
2022-11-05T21:18:53.962Z,100881.34
2022-11-05T21:21:21.832Z,100870.75
2022-11-05T21:23:49.757Z,100880.66
2022-11-05T21:26:18.659Z,100869.91
2022-11-05T21:28:46.632Z,100866.41
2022-11-05T21:31:14.759Z,100863.94
2022-11-05T21:33:43.906Z,100866.47
2022-11-05T21:36:13.432Z,100861.44
2022-11-05T21:38:42.223Z,100869.41
2022-11-05T21:41:12.277Z,100867.59
2022-11-05T21:43:41.691Z,100863.34
2022-11-05T21:46:10.717Z,100864.19
2022-11-05T21:48:38.615Z,100867.59
2022-11-05T21:51:25.636Z,100865.06
2022-11-05T21:54:10.771Z,100864.19
2022-11-05T21:56:56.669Z,100872.31
2022-11-05T21:59:43.372Z,100872.22
2022-11-05T22:02:13.559Z,100873.09
2022-11-05T22:04:43.530Z,100871.19
2022-11-05T22:07:14.824Z,100864.88
2022-11-05T22:09:42.777Z,100868.28
2022-11-05T22:12:11.154Z,100868.28
2022-11-05T22:14:39.242Z,100866.59
2022-11-05T22:17:07.298Z,100871.00
2022-11-05T22:19:35.358Z,100870.34
2022-11-05T22:22:04.118Z,100873.84
2022-11-05T22:24:34.258Z,100869.41
2022-11-05T22:27:05.201Z,100872.03
2022-11-05T22:29:33.240Z,100868.63
2022-11-05T22:32:01.089Z,100857.13
2022-11-05T22:34:29.060Z,100857.19
2022-11-05T22:36:56.849Z,100853.78
2022-11-05T22:39:24.932Z,100866.16
2022-11-05T22:41:56.028Z,100857.47
2022-11-05T22:44:24.347Z,100857.47
2022-11-05T22:46:52.460Z,100868.97
2022-11-05T22:49:20.337Z,100860.34
2022-11-05T22:51:48.122Z,100856.94
2022-11-05T22:54:15.984Z,100862.31
2022-11-05T22:56:43.991Z,100873.94
2022-11-05T22:59:15.643Z,100867.72
2022-11-05T23:01:45.172Z,100867.59
2022-11-05T23:04:13.921Z,100865.84
2022-11-05T23:06:59.289Z,100865.91
2022-11-05T23:09:46.486Z,100864.19
2022-11-05T23:12:27.317Z,100860.44
2022-11-05T23:14:58.455Z,100855.25
2022-11-05T23:17:44.051Z,100858.81
2022-11-05T23:20:35.321Z,100846.53
2022-11-05T23:23:20.520Z,100849.25
2022-11-05T23:25:48.329Z,100848.50
2022-11-05T23:28:21.216Z,100849.53
2022-11-05T23:31:07.957Z,100852.34
2022-11-05T23:33:36.429Z,100852.59
2022-11-05T23:36:22.272Z,100850.03
2022-11-05T23:38:50.134Z,100841.25
2022-11-05T23:41:35.338Z,100835.97
2022-11-05T23:44:26.072Z,100835.44
2022-11-05T23:47:12.651Z,100833.56
2022-11-05T23:49:40.390Z,100841.41
2022-11-05T23:52:08.141Z,100840.66
2022-11-05T23:54:35.959Z,100844.25
2022-11-05T23:57:03.690Z,100853.13
2022-11-05T23:59:31.511Z,100843.56
